James Creek, Pennsylvania
Current Conditions -  °F | °C
As of 8:53 PM on Friday 24 Oct 2014 (Local Time) from KAOO Reporting Station
Clear Clear  
Wind Chill: 48°   Ceiling: Unl
Heat Index: 48°   Visibility: 10mi
Dew Point: 38°   Wind: 3mph
Humidity: 68%   Direction: 250°WSW
Pressure: 29.99"   Gusts: NA
Location:  40.39°N, 78.17°W
Report Text: KAOO 250053Z AUTO 25003KT 10SM CLR 09/03 A2999 RMK AO2 SLP159 T00890033
Loading
Personal Weather Stations






























Interactive Weather Map
Tropical Storm Tracking
New forecast layout! Learn more

10-Day Weather Forecast

Advertisements
Track Severe Weather on mobile